Terminal Aerodrome Forecast
Issued by NWS Wilmington, NC

Home | Current Version | Previous Version | Text Only | Print | Product List | Glossary On
Versions: 1 2 3 4 5 6 7 8 9 10 11 12 13 14 15 16 17 18 19 20 21 22 23 24 25 26 27 28
448
FTUS42 KILM 301444 AAA
TAFLBT
TAF AMD
KLBT 301444Z 3015/0112 10008KT P6SM BKN015 OVC025
     FM301900 11008KT P6SM BKN025 OVC035
     FM010200 11006KT P6SM BKN015 OVC025
     FM010500 13006KT P6SM VCSH OVC006=

USA.gov is the U.S. government's official web portal to all federal, state and local government web resources and services.